Time;durP1;ratioP1;P1;durP2;ratioP2;P2;SDS_P1;SDS_P2;PMS_P1;PMS_P2;Temp;Humidity;BMP_temperature;BMP_pressure;BME280_temperature;BME280_humidity;BME280_pressure;Samples;Min_cycle;Max_cycle;Signal;HPM_P1;HPM_P2
2024/02/19 00:00:39;;;;;;;8.80;4.38;;;;;;;14.15;71.10;100188.09;5073387;28;20621;-47
2024/02/19 00:03:05;;;;;;;8.18;7.35;;;;;;;14.08;70.87;100184.53;5074515;28;20058;-46
2024/02/19 00:05:31;;;;;;;9.02;4.57;;;;;;;13.99;71.02;100172.47;5074633;28;20120;-47
2024/02/19 00:07:57;;;;;;;5.70;3.47;;;;;;;14.06;71.80;100176.00;5073437;28;20158;-47
2024/02/19 00:10:24;;;;;;;9.02;3.53;;;;;;;14.14;70.31;100167.97;5074484;28;20028;-47
2024/02/19 00:12:50;;;;;;;10.30;8.95;;;;;;;14.13;69.96;100166.34;5074520;28;20406;-46
2024/02/19 00:15:16;;;;;;;7.00;3.75;;;;;;;14.06;69.48;100173.34;5074720;28;20082;-46
2024/02/19 00:17:42;;;;;;;7.30;3.72;;;;;;;13.99;69.34;100169.84;5074408;28;20453;-47
2024/02/19 00:20:08;;;;;;;6.22;3.40;;;;;;;13.95;69.45;100171.22;5072988;28;20060;-47
2024/02/19 00:22:34;;;;;;;8.48;4.07;;;;;;;13.94;69.34;100165.13;5074307;28;20052;-47
2024/02/19 00:25:00;;;;;;;6.30;5.53;;;;;;;13.95;69.16;100173.84;5072679;28;20130;-47
2024/02/19 00:27:26;;;;;;;12.07;7.47;;;;;;;13.85;70.64;100173.34;5074500;28;20039;-47
2024/02/19 00:29:51;;;;;;;11.98;8.60;;;;;;;13.71;72.98;100172.34;5073184;28;20107;-47
2024/02/19 00:32:17;;;;;;;9.60;5.88;;;;;;;13.72;75.15;100172.16;5073077;28;20033;-47
2024/02/19 00:34:43;;;;;;;10.57;8.57;;;;;;;13.61;76.60;100171.81;5056385;28;20051;-46
2024/02/19 00:37:12;;;;;;;9.07;4.60;;;;;;;13.57;78.95;100168.72;5074046;28;20056;-46
2024/02/19 00:39:38;;;;;;;12.27;7.38;;;;;;;13.41;80.80;100172.34;5074047;28;20020;-46
2024/02/19 00:42:04;;;;;;;6.90;4.57;;;;;;;13.46;82.81;100164.72;5072568;28;20082;-46
2024/02/19 00:44:30;;;;;;;9.20;4.88;;;;;;;13.50;83.63;100160.72;5074084;28;20048;-47
2024/02/19 00:46:56;;;;;;;5.93;3.90;;;;;;;13.50;84.25;100163.38;5073842;28;20051;-47
2024/02/19 00:49:22;;;;;;;7.25;3.88;;;;;;;13.49;84.36;100166.19;5072493;28;20020;-47
2024/02/19 00:51:48;;;;;;;6.90;4.13;;;;;;;13.38;84.24;100163.00;5073707;28;20568;-47
2024/02/19 00:54:14;;;;;;;8.80;4.50;;;;;;;13.40;85.64;100160.19;5073662;28;20090;-47
2024/02/19 00:56:40;;;;;;;9.05;5.13;;;;;;;13.49;87.29;100161.72;5073694;28;20020;-47
2024/02/19 00:59:09;;;;;;;8.50;4.40;;;;;;;13.58;88.92;100163.25;5073552;28;20024;-47
2024/02/19 01:01:34;;;;;;;6.70;4.38;;;;;;;13.57;89.34;100161.63;5073517;28;20017;-47
2024/02/19 01:04:01;;;;;;;6.13;4.88;;;;;;;13.48;89.60;100156.63;5073425;28;20032;-47
2024/02/19 01:06:27;;;;;;;8.52;4.35;;;;;;;13.38;89.00;100157.72;5072730;28;20039;-47
2024/02/19 01:08:54;;;;;;;12.35;5.32;;;;;;;13.33;89.76;100173.25;5073256;28;20027;-47
2024/02/19 01:11:20;;;;;;;11.25;5.93;;;;;;;13.33;92.88;100175.91;5072286;28;20058;-47
2024/02/19 01:13:46;;;;;;;19.42;15.02;;;;;;;13.34;95.79;100179.34;5072256;28;20021;-47
2024/02/19 01:16:11;;;;;;;11.75;6.90;;;;;;;13.26;98.29;100172.34;5073226;28;20064;-46
2024/02/19 01:18:37;;;;;;;10.45;6.05;;;;;;;13.11;99.67;100169.66;5072188;28;20059;-46
2024/02/19 01:21:03;;;;;;;15.10;7.75;;;;;;;12.81;100.00;100173.25;5072115;28;20374;-46
2024/02/19 01:23:30;;;;;;;12.98;11.63;;;;;;;12.73;100.00;100179.41;5071453;28;20190;-46
2024/02/19 01:25:55;;;;;;;13.50;9.13;;;;;;;12.71;100.00;100178.75;5073010;28;20032;-45
2024/02/19 01:28:22;;;;;;;11.32;7.30;;;;;;;12.65;100.00;100169.75;5071975;28;20093;-46
2024/02/19 01:30:48;;;;;;;10.93;7.15;;;;;;;12.70;100.00;100166.59;5072891;28;20044;-46
2024/02/19 01:33:14;;;;;;;16.65;10.60;;;;;;;12.65;100.00;100171.56;5071858;28;20162;-46
2024/02/19 01:35:40;;;;;;;9.32;7.03;;;;;;;12.58;100.00;100172.28;5072799;28;20485;-45
2024/02/19 01:38:05;;;;;;;10.05;6.55;;;;;;;12.53;100.00;100165.91;5072763;28;20024;-46
2024/02/19 01:40:32;;;;;;;6.82;5.47;;;;;;;12.48;100.00;100168.25;5071456;28;20503;-46
2024/02/19 01:43:01;;;;;;;12.32;6.22;;;;;;;12.48;100.00;100171.69;5071610;28;20573;-46
2024/02/19 01:45:28;;;;;;;8.05;5.60;;;;;;;12.56;100.00;100162.94;5072913;28;20168;-46
2024/02/19 01:47:58;;;;;;;10.60;5.30;;;;;;;12.55;100.00;100174.44;5071250;28;20036;-46
2024/02/19 01:50:27;;;;;;;6.20;4.65;;;;;;;12.53;100.00;100166.72;5071191;28;20031;-45
2024/02/19 01:52:54;;;;;;;9.30;4.80;;;;;;;12.56;100.00;100170.81;5071639;28;20024;-46
2024/02/19 01:55:21;;;;;;;9.65;6.53;;;;;;;12.62;100.00;100174.56;5054618;28;20062;-46
2024/02/19 01:57:47;;;;;;;15.52;7.00;;;;;;;12.58;100.00;100167.00;5072472;28;20514;-46
2024/02/19 02:00:13;;;;;;;10.52;4.90;;;;;;;12.49;100.00;100175.16;5071375;28;20024;-46
2024/02/19 02:02:40;;;;;;;10.20;5.38;;;;;;;12.33;100.00;100168.19;5072277;28;20056;-46
2024/02/19 02:05:06;;;;;;;9.45;5.30;;;;;;;12.32;100.00;100166.56;5072146;28;20040;-46
2024/02/19 02:07:32;;;;;;;10.73;6.57;;;;;;;12.24;100.00;100171.88;5072247;28;20031;-46
2024/02/19 02:10:02;;;;;;;8.73;6.25;;;;;;;12.32;100.00;100164.72;5071146;28;20033;-46
2024/02/19 02:12:28;;;;;;;7.57;6.20;;;;;;;12.52;100.00;100159.81;5072148;28;20025;-46
2024/02/19 02:14:54;;;;;;;12.45;10.80;;;;;;;12.65;100.00;100156.59;5071120;28;20082;-46
2024/02/19 02:17:19;;;;;;;8.73;5.68;;;;;;;12.74;100.00;100159.97;5072098;28;20085;-45
2024/02/19 02:19:45;;;;;;;28.13;25.23;;;;;;;12.75;100.00;100151.88;5071923;28;20020;-45
2024/02/19 02:22:14;;;;;;;24.85;21.15;;;;;;;12.74;100.00;100150.25;5072057;28;20443;-46
2024/02/19 02:24:40;;;;;;;168.02;152.27;;;;;;;12.75;100.00;100148.44;5071611;28;20040;-45
2024/02/19 02:27:06;;;;;;;22.67;20.13;;;;;;;12.71;100.00;100147.97;5071968;28;20029;-46
2024/02/19 02:29:32;;;;;;;10.63;7.97;;;;;;;12.64;100.00;100160.22;5071909;28;20074;-46
2024/02/19 02:31:58;;;;;;;84.80;77.10;;;;;;;12.47;100.00;100154.25;5071935;28;20029;-46
2024/02/19 02:34:24;;;;;;;20.52;17.83;;;;;;;12.37;100.00;100154.50;5071950;28;20035;-46
2024/02/19 02:36:51;;;;;;;12.07;7.88;;;;;;;12.37;100.00;100145.78;5071796;28;20024;-45
2024/02/19 02:39:17;;;;;;;9.00;7.75;;;;;;;12.43;100.00;100141.63;5070548;28;20048;-46
2024/02/19 02:41:44;;;;;;;9.35;6.43;;;;;;;12.53;100.00;100140.38;5070526;28;20056;-46
2024/02/19 02:44:10;;;;;;;8.95;4.97;;;;;;;12.75;100.00;100132.63;5070438;28;20025;-46
2024/02/19 02:46:35;;;;;;;11.13;5.63;;;;;;;12.79;100.00;100131.28;5071752;28;20047;-45
2024/02/19 02:49:01;;;;;;;9.50;5.47;;;;;;;12.79;100.00;100132.09;5071769;28;20028;-46
2024/02/19 02:51:27;;;;;;;8.40;6.68;;;;;;;12.81;100.00;100131.91;5071709;28;20115;-46
2024/02/19 02:53:53;;;;;;;23.35;15.75;;;;;;;12.81;100.00;100131.09;5070708;28;20119;-47
2024/02/19 02:56:22;;;;;;;26.27;23.65;;;;;;;12.86;100.00;100129.56;5070349;28;20056;-46
2024/02/19 02:58:48;;;;;;;41.63;37.65;;;;;;;12.78;100.00;100130.47;5070397;28;20452;-46
2024/02/19 03:01:28;;;;;;;21.10;19.05;;;;;;;12.64;100.00;100123.34;5070457;28;20025;-46
2024/02/19 03:03:54;;;;;;;11.95;7.38;;;;;;;12.68;100.00;100126.44;5071688;28;20032;-46
2024/02/19 03:06:20;;;;;;;35.05;31.70;;;;;;;12.77;100.00;100122.72;5070308;28;20025;-46
2024/02/19 03:08:45;;;;;;;16.92;14.38;;;;;;;12.83;100.00;100122.00;5070315;28;20391;-46
2024/02/19 03:11:12;;;;;;;13.68;10.40;;;;;;;12.86;100.00;100121.66;5071537;28;20024;-46
2024/02/19 03:13:38;;;;;;;8.65;7.00;;;;;;;12.92;100.00;100120.13;5070300;28;20021;-47
2024/02/19 03:16:08;;;;;;;8.73;5.68;;;;;;;12.87;100.00;100110.13;5070175;28;20027;-46
2024/02/19 03:18:37;;;;;;;11.63;4.93;;;;;;;12.78;100.00;100112.03;5071457;28;20024;-46
2024/02/19 03:21:07;;;;;;;8.65;5.80;;;;;;;12.63;100.00;100119.06;5070282;28;20021;-47
2024/02/19 03:23:33;;;;;;;9.05;5.82;;;;;;;12.62;100.00;100112.19;5071266;28;20048;-46
2024/02/19 03:25:59;;;;;;;8.27;6.32;;;;;;;12.74;100.00;100120.47;5070178;28;20486;-46
2024/02/19 03:28:24;;;;;;;13.95;11.55;;;;;;;12.81;100.00;100117.94;5070106;28;20482;-46
2024/02/19 03:30:51;;;;;;;292.77;263.35;;;;;;;13.08;100.00;100116.50;5072213;28;20028;-47
2024/02/19 03:33:16;;;;;;;517.97;418.27;;;;;;;13.27;100.00;100105.41;5075268;28;20032;-47
2024/02/19 03:35:42;;;;;;;650.28;488.13;;;;;;;13.33;100.00;100112.63;5075204;28;20397;-47
2024/02/19 03:38:09;;;;;;;413.27;319.15;;;;;;;13.38;100.00;100110.25;5075159;28;20021;-47
2024/02/19 03:40:36;;;;;;;544.35;419.08;;;;;;;13.29;100.00;100111.34;5075035;28;20059;-46
2024/02/19 03:43:02;;;;;;;102.68;73.15;;;;;;;13.19;100.00;100108.94;5074935;28;20024;-47
2024/02/19 03:45:28;;;;;;;297.80;216.80;;;;;;;12.88;100.00;100113.59;5074953;28;20059;-46
2024/02/19 03:47:57;;;;;;;299.27;215.98;;;;;;;12.80;100.00;100117.13;5073666;28;20025;-46
2024/02/19 03:50:23;;;;;;;425.70;316.85;;;;;;;12.88;100.00;100119.66;5074896;28;20021;-46
2024/02/19 03:52:49;;;;;;;290.65;215.50;;;;;;;12.96;100.00;100110.88;5074824;28;20445;-46
2024/02/19 03:55:15;;;;;;;294.58;229.52;;;;;;;12.96;100.00;100109.03;5073698;28;20017;-46
2024/02/19 03:57:41;;;;;;;161.02;115.97;;;;;;;13.03;100.00;100106.50;5073537;28;20024;-46
2024/02/19 04:00:09;;;;;;;69.35;43.20;;;;;;;13.23;100.00;100098.88;5074615;28;20024;-46
2024/02/19 04:02:36;;;;;;;17.63;10.57;;;;;;;13.37;100.00;100102.53;5074665;28;20029;-46
2024/02/19 04:05:01;;;;;;;15.40;9.95;;;;;;;13.31;100.00;100109.34;5074475;28;20520;-47
2024/02/19 04:07:27;;;;;;;27.17;12.32;;;;;;;13.28;100.00;100108.84;5073362;28;20021;-46
2024/02/19 04:09:53;;;;;;;1999.90;999.90;;;;;;;13.37;100.00;100115.72;5073223;28;20032;-47
2024/02/19 04:12:18;;;;;;;858.38;645.95;;;;;;;13.53;100.00;100112.06;5073169;28;20498;-46
2024/02/19 04:14:44;;;;;;;1999.90;999.90;;;;;;;13.48;100.00;100119.69;5073138;28;20037;-47
2024/02/19 04:17:10;;;;;;;551.58;493.23;;;;;;;13.50;100.00;100115.06;5073023;28;20033;-47
2024/02/19 04:19:36;;;;;;;284.08;247.13;;;;;;;13.46;100.00;100112.00;5074312;28;20382;-47
2024/02/19 04:22:01;;;;;;;158.35;140.95;;;;;;;13.43;100.00;100112.34;5074346;28;20025;-47
2024/02/19 04:24:27;;;;;;;474.17;408.52;;;;;;;13.43;100.00;100117.63;5072463;28;20544;-47
2024/02/19 04:26:53;;;;;;;624.40;524.45;;;;;;;13.50;100.00;100120.31;5074223;28;20526;-46
2024/02/19 04:29:18;;;;;;;791.15;646.00;;;;;;;13.63;100.00;100115.22;5073127;28;20398;-46
2024/02/19 04:31:44;;;;;;;740.38;632.90;;;;;;;13.87;100.00;100119.34;5072758;28;20102;-46
2024/02/19 04:34:10;;;;;;;261.05;232.57;;;;;;;14.08;100.00;100115.09;5074056;28;20062;-46
2024/02/19 04:36:36;;;;;;;171.75;154.52;;;;;;;14.18;100.00;100111.16;5074012;28;20028;-46
2024/02/19 04:39:02;;;;;;;57.78;51.72;;;;;;;14.19;100.00;100123.34;5074058;28;20536;-46
2024/02/19 04:41:27;;;;;;;40.45;33.72;;;;;;;14.19;100.00;100110.13;5072707;28;20031;-46
2024/02/19 04:43:53;;;;;;;46.08;39.08;;;;;;;14.16;100.00;100112.34;5072733;28;20085;-46
2024/02/19 04:46:19;;;;;;;30.00;26.58;;;;;;;14.24;100.00;100116.69;5072587;28;20036;-46
2024/02/19 04:48:44;;;;;;;20.55;15.73;;;;;;;14.25;100.00;100113.03;5072526;28;20477;-46
2024/02/19 04:51:10;;;;;;;17.23;12.63;;;;;;;14.22;100.00;100114.22;5072464;28;20039;-46
2024/02/19 04:53:39;;;;;;;18.27;11.70;;;;;;;14.18;100.00;100118.25;5073792;28;20070;-46
2024/02/19 04:56:05;;;;;;;14.25;9.07;;;;;;;14.03;100.00;100112.22;5072319;28;20038;-46
2024/02/19 04:58:30;;;;;;;21.92;18.05;;;;;;;13.86;100.00;100116.91;5073638;28;20020;-46
2024/02/19 05:00:56;;;;;;;25.25;22.85;;;;;;;13.76;100.00;100118.03;5073657;28;20023;-46
2024/02/19 05:03:22;;;;;;;21.88;16.17;;;;;;;13.53;100.00;100115.50;5073467;28;20418;-46
2024/02/19 05:05:47;;;;;;;14.52;10.70;;;;;;;13.45;100.00;100120.06;5073450;28;20025;-46
2024/02/19 05:08:13;;;;;;;14.20;12.20;;;;;;;13.47;100.00;100118.88;5073465;28;20415;-46
2024/02/19 05:10:39;;;;;;;13.02;11.60;;;;;;;13.38;100.00;100125.25;5073451;28;20020;-46
2024/02/19 05:13:05;;;;;;;14.90;10.43;;;;;;;13.21;100.00;100123.78;5073302;28;20025;-46
2024/02/19 05:15:30;;;;;;;12.10;7.20;;;;;;;13.09;100.00;100120.78;5073311;28;20024;-46
2024/02/19 05:17:56;;;;;;;8.68;6.47;;;;;;;13.06;100.00;100116.69;5073297;28;20016;-46
2024/02/19 05:20:23;;;;;;;15.70;9.57;;;;;;;12.82;100.00;100115.13;5071867;28;20029;-46
2024/02/19 05:22:50;;;;;;;11.35;5.80;;;;;;;12.86;100.00;100123.47;5055537;28;20036;-46
2024/02/19 05:25:17;;;;;;;8.73;5.80;;;;;;;12.87;100.00;100115.38;5072846;28;20052;-46
2024/02/19 05:27:43;;;;;;;9.68;6.75;;;;;;;12.95;100.00;100120.56;5055634;28;20032;-46
2024/02/19 05:30:10;;;;;;;10.23;6.18;;;;;;;13.17;100.00;100107.50;5072940;28;20560;-46
2024/02/19 05:32:37;;;;;;;8.05;5.10;;;;;;;13.33;100.00;100117.88;5071654;28;20032;-46
2024/02/19 05:35:03;;;;;;;9.98;5.70;;;;;;;13.28;100.00;100117.59;5072859;28;20082;-46
2024/02/19 05:37:29;;;;;;;10.43;6.13;;;;;;;13.19;100.00;100114.22;5055379;28;20119;-46
2024/02/19 05:39:55;;;;;;;14.18;7.13;;;;;;;13.14;100.00;100113.97;5072877;28;20525;-46
2024/02/19 05:42:20;;;;;;;12.68;6.30;;;;;;;13.01;100.00;100126.13;5071450;28;20077;-46
2024/02/19 05:44:46;;;;;;;11.82;5.32;;;;;;;12.98;100.00;100128.13;5071331;28;20085;-46
2024/02/19 05:47:12;;;;;;;11.07;4.75;;;;;;;13.04;100.00;100128.38;5071518;28;20033;-46
2024/02/19 05:49:39;;;;;;;9.23;6.22;;;;;;;13.16;100.00;100126.97;5072674;28;20036;-46
2024/02/19 05:52:05;;;;;;;12.43;6.03;;;;;;;13.04;100.00;100116.06;5072536;28;20525;-46
2024/02/19 05:54:31;;;;;;;20.42;18.52;;;;;;;13.12;100.00;100125.66;5070824;28;20028;-46
2024/02/19 05:56:57;;;;;;;57.83;52.58;;;;;;;13.28;100.00;100125.50;5071183;28;20483;-46
2024/02/19 05:59:22;;;;;;;24.92;15.48;;;;;;;13.49;100.00;100132.69;5072414;28;20039;-46
2024/02/19 06:01:49;;;;;;;36.10;10.05;;;;;;;13.52;100.00;100123.59;5072461;28;20071;-46
2024/02/19 06:04:15;;;;;;;21.83;8.43;;;;;;;13.49;100.00;100124.78;5072278;28;20051;-45
2024/02/19 06:06:40;;;;;;;25.52;8.77;;;;;;;13.51;100.00;100124.63;5072318;28;20558;-46
2024/02/19 06:09:06;;;;;;;12.10;7.55;;;;;;;13.58;100.00;100122.84;5071117;28;20100;-46
2024/02/19 06:11:32;;;;;;;14.65;6.20;;;;;;;13.72;100.00;100121.19;5070927;28;20033;-46
2024/02/19 06:13:58;;;;;;;8.82;6.15;;;;;;;13.98;100.00;100128.59;5072218;28;20028;-46
2024/02/19 06:16:24;;;;;;;13.93;6.20;;;;;;;14.03;100.00;100128.88;5070990;28;20028;-46
2024/02/19 06:18:49;;;;;;;14.48;9.68;;;;;;;14.05;100.00;100124.22;5072134;28;20394;-47
2024/02/19 06:21:15;;;;;;;19.45;6.80;;;;;;;14.15;100.00;100126.56;5072038;28;20052;-48
2024/02/19 06:23:44;;;;;;;14.57;6.30;;;;;;;14.25;99.10;100124.41;5071691;28;20029;-48
2024/02/19 06:26:12;;;;;;;16.23;7.03;;;;;;;14.30;98.92;100126.47;5072095;28;20055;-47
2024/02/19 06:28:39;;;;;;;13.77;6.07;;;;;;;14.29;98.48;100120.38;5072034;28;20048;-47
2024/02/19 06:31:05;;;;;;;10.30;6.85;;;;;;;14.28;97.73;100124.03;5054176;28;20441;-47
2024/02/19 06:33:30;;;;;;;16.77;6.30;;;;;;;14.36;97.67;100128.38;5070584;28;20024;-47
2024/02/19 06:35:56;;;;;;;12.85;5.70;;;;;;;14.36;96.88;100117.81;5071905;28;20025;-47
2024/02/19 06:38:22;;;;;;;11.45;6.20;;;;;;;14.34;96.91;100120.63;5071832;28;20482;-47
2024/02/19 06:40:48;;;;;;;11.77;6.63;;;;;;;14.35;96.31;100121.47;5070814;28;20024;-47
2024/02/19 06:43:15;;;;;;;9.32;5.72;;;;;;;14.15;93.85;100118.63;5070544;28;20421;-47
2024/02/19 06:45:42;;;;;;;18.00;5.97;;;;;;;13.98;94.96;100132.06;5071754;28;20051;-47
2024/02/19 06:48:08;;;;;;;21.42;6.68;;;;;;;13.81;94.32;100130.66;5070418;28;20485;-47
2024/02/19 06:50:33;;;;;;;12.82;6.32;;;;;;;13.63;94.87;100136.31;5071742;28;20045;-48
2024/02/19 06:52:59;;;;;;;13.20;6.55;;;;;;;13.53;95.87;100127.88;5070640;28;20600;-47
2024/02/19 06:55:25;;;;;;;13.32;6.03;;;;;;;13.51;97.02;100137.81;5071620;28;20055;-47
2024/02/19 06:57:51;;;;;;;15.15;5.95;;;;;;;13.56;97.15;100138.91;5071664;28;20027;-47
2024/02/19 07:00:17;;;;;;;20.08;6.53;;;;;;;13.70;96.69;100141.69;5071584;28;20128;-48
2024/02/19 07:02:43;;;;;;;11.13;5.72;;;;;;;13.77;95.75;100142.59;5070554;28;20060;-48
2024/02/19 07:05:08;;;;;;;11.48;5.55;;;;;;;13.88;95.75;100142.09;5072558;28;20059;-48
2024/02/19 07:07:34;;;;;;;6.38;4.63;;;;;;;13.97;95.17;100140.16;5075753;28;20410;-48
2024/02/19 07:10:00;;;;;;;6.53;3.70;;;;;;;14.02;94.81;100145.69;5075732;28;20043;-48
2024/02/19 07:12:27;;;;;;;5.95;4.00;;;;;;;13.98;94.13;100142.63;5075732;28;20020;-48
2024/02/19 07:14:55;;;;;;;6.85;5.20;;;;;;;13.98;91.32;100147.91;5074359;28;20078;-48
2024/02/19 07:17:21;;;;;;;6.65;5.00;;;;;;;13.82;89.22;100150.75;5074265;28;20025;-48
2024/02/19 07:19:47;;;;;;;9.30;5.78;;;;;;;13.66;90.26;100153.59;5075495;28;20044;-48
2024/02/19 07:22:13;;;;;;;11.60;5.38;;;;;;;13.58;90.55;100152.72;5074172;28;20031;-48
2024/02/19 07:24:39;;;;;;;11.10;5.43;;;;;;;13.46;89.63;100156.81;5078792;28;20057;-49
2024/02/19 07:27:05;;;;;;;9.32;4.70;;;;;;;13.36;90.28;100145.69;5075401;28;20025;-48
2024/02/19 07:29:31;;;;;;;7.97;6.40;;;;;;;13.35;91.25;100162.53;5074074;28;20025;-48
2024/02/19 07:31:57;;;;;;;5.80;4.28;;;;;;;13.32;90.90;100158.47;5073961;28;20032;-48
2024/02/19 07:34:23;;;;;;;10.55;4.68;;;;;;;13.27;90.44;100160.78;5075244;28;20379;-48
2024/02/19 07:36:49;;;;;;;11.13;5.25;;;;;;;13.25;92.24;100167.22;5073920;28;20111;-48
2024/02/19 07:39:16;;;;;;;12.73;3.95;;;;;;;13.43;92.41;100180.09;5075120;28;20450;-48
2024/02/19 07:41:41;;;;;;;7.85;4.70;;;;;;;13.47;91.35;100169.00;5075111;28;20039;-48
2024/02/19 07:44:07;;;;;;;9.20;4.43;;;;;;;13.46;91.32;100175.28;5075044;28;20404;-48
2024/02/19 07:46:33;;;;;;;7.32;4.68;;;;;;;13.45;90.46;100180.72;5074977;28;20027;-48
2024/02/19 07:48:59;;;;;;;6.80;4.25;;;;;;;13.37;90.63;100179.81;5073680;28;20499;-48
2024/02/19 07:51:25;;;;;;;14.48;4.93;;;;;;;13.49;92.06;100182.00;5074905;28;20032;-48
2024/02/19 07:53:50;;;;;;;12.50;5.65;;;;;;;13.53;91.54;100175.38;5074907;28;20027;-48
2024/02/19 07:56:16;;;;;;;4.47;3.15;;;;;;;13.48;90.45;100167.16;5074853;28;20021;-48
2024/02/19 07:58:42;;;;;;;8.20;3.45;;;;;;;13.66;91.86;100170.28;5074809;28;20558;-48
2024/02/19 08:01:08;;;;;;;7.38;3.05;;;;;;;13.80;91.35;100173.88;5074764;28;20059;-48
2024/02/19 08:03:34;;;;;;;9.57;3.13;;;;;;;14.04;91.63;100172.72;5073347;28;20028;-48
2024/02/19 08:06:00;;;;;;;6.60;3.63;;;;;;;14.27;90.96;100177.06;5074640;28;20025;-48
2024/02/19 08:08:25;;;;;;;8.98;3.20;;;;;;;14.38;90.13;100177.34;5073294;28;20028;-48
2024/02/19 08:10:52;;;;;;;6.18;3.20;;;;;;;14.62;89.52;100180.66;5074589;28;20021;-48
2024/02/19 08:13:18;;;;;;;5.60;2.70;;;;;;;14.78;88.60;100174.28;5074498;28;20524;-48
2024/02/19 08:15:44;;;;;;;11.05;4.97;;;;;;;15.05;87.87;100171.84;5074207;28;20021;-48
2024/02/19 08:18:10;;;;;;;22.52;3.92;;;;;;;15.34;85.38;100187.50;5074428;28;20025;-48
2024/02/19 08:20:39;;;;;;;9.07;3.13;;;;;;;15.51;82.45;100180.09;5074638;28;20529;-48
2024/02/19 08:23:05;;;;;;;24.63;4.00;;;;;;;15.67;82.29;100178.91;5074267;28;20071;-48
2024/02/19 08:25:32;;;;;;;8.85;2.40;;;;;;;15.87;81.24;100184.31;5073978;28;20076;-49
2024/02/19 08:27:59;;;;;;;6.97;2.63;;;;;;;15.78;79.21;100178.38;5072989;28;20486;-48
2024/02/19 08:30:24;;;;;;;10.43;3.60;;;;;;;15.73;77.19;100188.75;5073118;28;20032;-49
2024/02/19 08:32:50;;;;;;;18.13;3.88;;;;;;;15.75;77.73;100186.75;5074148;28;20058;-49
2024/02/19 08:35:16;;;;;;;16.13;3.30;;;;;;;15.75;77.07;100189.38;5072802;28;20036;-49
2024/02/19 08:37:43;;;;;;;10.35;2.40;;;;;;;15.77;76.51;100183.88;5073063;28;20625;-49
2024/02/19 08:40:09;;;;;;;10.05;2.63;;;;;;;15.78;76.44;100181.03;5072667;28;20025;-49
2024/02/19 08:42:35;;;;;;;5.15;1.83;;;;;;;15.93;76.25;100177.41;5073919;28;20029;-49
2024/02/19 08:45:05;;;;;;;10.95;2.50;;;;;;;16.18;74.63;100188.31;5073832;28;20035;-49
2024/02/19 08:47:31;;;;;;;4.15;2.20;;;;;;;16.33;71.32;100185.47;5073783;28;20024;-49
2024/02/19 08:49:57;;;;;;;6.40;1.80;;;;;;;16.36;68.99;100183.25;5073800;28;20028;-49
2024/02/19 08:52:23;;;;;;;3.22;1.90;;;;;;;16.53;68.23;100181.03;5073768;28;20050;-49
2024/02/19 08:54:52;;;;;;;3.90;1.67;;;;;;;16.91;67.25;100175.16;5072484;28;20029;-49
2024/02/19 08:57:17;;;;;;;5.95;2.10;;;;;;;17.42;66.31;100170.16;5073687;28;20106;-49
2024/02/19 08:59:46;;;;;;;4.63;1.77;;;;;;;17.93;63.99;100177.38;5072672;28;20442;-49
2024/02/19 09:02:15;;;;;;;6.22;2.03;;;;;;;19.12;63.08;100170.41;5073619;28;20021;-49
2024/02/19 09:04:45;;;;;;;2.45;1.45;;;;;;;20.53;57.23;100166.81;5073516;28;20031;-46
2024/02/19 09:07:14;;;;;;;4.47;1.92;;;;;;;20.65;54.63;100169.53;5055679;28;20049;-46
2024/02/19 09:09:44;;;;;;;2.13;1.50;;;;;;;20.02;53.16;100169.00;5073505;28;20386;-46
2024/02/19 09:12:10;;;;;;;3.80;1.60;;;;;;;19.18;54.36;100174.03;5073415;28;20512;-46
2024/02/19 09:14:35;;;;;;;3.08;1.60;;;;;;;18.53;55.49;100171.69;5073375;28;20031;-46
2024/02/19 09:17:01;;;;;;;5.70;1.95;;;;;;;17.94;57.62;100166.53;5073338;28;20044;-46
2024/02/19 09:19:27;;;;;;;4.65;1.67;;;;;;;17.81;59.43;100161.25;5073309;28;20035;-46
2024/02/19 09:21:53;;;;;;;2.92;1.77;;;;;;;17.93;58.64;100156.13;5072202;28;20115;-46
2024/02/19 09:24:19;;;;;;;3.78;1.80;;;;;;;18.38;58.75;100177.31;5073079;28;20030;-46
2024/02/19 09:26:44;;;;;;;7.20;1.70;;;;;;;19.40;55.70;100169.09;5053128;28;20506;-46
2024/02/19 09:29:10;;;;;;;4.13;1.73;;;;;;;20.19;54.33;100168.34;5052374;28;20024;-46
2024/02/19 09:31:36;;;;;;;3.90;1.70;;;;;;;21.46;50.98;100167.09;5051772;28;20031;-46
2024/02/19 09:34:02;;;;;;;4.20;1.42;;;;;;;23.12;45.95;100157.16;5052990;28;20415;-46
2024/02/19 09:36:28;;;;;;;8.82;2.13;;;;;;;23.07;44.93;100151.72;5052936;28;20025;-46
2024/02/19 09:38:54;;;;;;;3.30;1.38;;;;;;;23.12;43.45;100155.28;5052975;28;20025;-46
2024/02/19 09:41:20;;;;;;;2.53;1.27;;;;;;;22.33;44.80;100166.06;5052818;28;20021;-46
2024/02/19 09:43:46;;;;;;;3.72;1.58;;;;;;;22.47;44.83;100167.38;5052787;28;20025;-46
2024/02/19 09:46:16;;;;;;;2.63;1.50;;;;;;;22.61;43.94;100170.56;5051398;28;20471;-46
2024/02/19 09:48:51;;;;;;;4.30;1.70;;;;;;;21.95;44.49;100180.88;5051430;28;20116;-46
2024/02/19 09:51:18;;;;;;;5.85;1.73;;;;;;;20.84;46.55;100181.72;5052895;28;20044;-46
2024/02/19 09:53:51;;;;;;;8.20;1.75;;;;;;;19.65;49.19;100192.97;5051320;28;20063;-46
2024/02/19 09:56:22;;;;;;;2.65;1.40;;;;;;;18.63;51.29;100190.63;5052540;28;20067;-45
2024/02/19 09:58:49;;;;;;;9.73;1.50;;;;;;;17.89;53.64;100192.09;5052293;28;20029;-45
2024/02/19 10:01:15;;;;;;;6.00;1.75;;;;;;;17.38;55.41;100204.25;5051005;28;20556;-45
2024/02/19 10:03:41;;;;;;;7.40;1.55;;;;;;;17.13;56.93;100202.28;5052321;28;20025;-46
2024/02/19 10:06:07;;;;;;;4.00;1.00;;;;;;;17.05;57.83;100204.34;5052330;28;20025;-46
2024/02/19 10:08:33;;;;;;;3.05;1.60;;;;;;;16.89;58.30;100202.91;5051083;28;20028;-46
2024/02/19 10:11:06;;;;;;;7.15;1.77;;;;;;;16.64;59.46;100213.25;5052367;28;20614;-46
2024/02/19 10:13:34;;;;;;;3.38;1.52;;;;;;;16.50;59.74;100207.09;5052325;28;20035;-46
2024/02/19 10:16:00;;;;;;;3.50;1.67;;;;;;;16.46;60.91;100208.53;5052150;28;20017;-46
2024/02/19 10:18:26;;;;;;;5.32;1.25;;;;;;;16.48;60.53;100207.31;5052234;28;20021;-46
2024/02/19 10:20:51;;;;;;;3.60;1.67;;;;;;;16.48;60.72;100201.19;5052155;28;20445;-46
2024/02/19 10:23:19;;;;;;;2.28;1.35;;;;;;;16.39;60.67;100203.22;5051989;28;20293;-46
2024/02/19 10:25:45;;;;;;;6.53;1.92;;;;;;;16.24;61.12;100211.34;5063621;28;20032;-46
2024/02/19 10:28:11;;;;;;;5.68;1.70;;;;;;;16.32;62.27;100199.75;5071980;28;20547;-46
2024/02/19 10:30:37;;;;;;;3.05;1.67;;;;;;;16.46;61.85;100193.47;5071940;28;20020;-46
2024/02/19 10:33:04;;;;;;;3.97;1.20;;;;;;;16.39;61.62;100192.63;5072004;28;20024;-46
2024/02/19 10:35:30;;;;;;;7.72;1.65;;;;;;;16.31;61.76;100200.75;5071922;28;20043;-46
2024/02/19 10:37:59;;;;;;;4.50;1.48;;;;;;;16.25;61.65;100185.66;5071908;28;20016;-46
2024/02/19 10:40:26;;;;;;;5.43;3.95;;;;;;;16.10;61.96;100191.16;5071708;28;20023;-46
2024/02/19 10:42:52;;;;;;;4.28;1.70;;;;;;;15.97;62.17;100191.91;5071765;28;20058;-46
2024/02/19 10:45:22;;;;;;;18.02;13.07;;;;;;;15.90;62.59;100183.13;5071681;28;20498;-46
2024/02/19 10:47:53;;;;;;;8.35;3.28;;;;;;;15.93;62.75;100183.53;5072161;28;20052;-46
2024/02/19 10:50:20;;;;;;;9.32;5.05;;;;;;;15.98;62.43;100196.19;5054275;28;20473;-46
2024/02/19 10:52:48;;;;;;;5.95;2.28;;;;;;;16.15;62.49;100189.50;5071814;28;20383;-46
2024/02/19 10:55:15;;;;;;;5.55;1.75;;;;;;;16.49;62.08;100193.03;5071767;28;20031;-46
2024/02/19 10:57:52;;;;;;;3.45;1.33;;;;;;;16.84;60.70;100190.25;5071733;28;20025;-46
2024/02/19 11:00:25;;;;;;;4.03;1.70;;;;;;;16.87;59.93;100194.34;5070314;28;20043;-46
2024/02/19 11:03:04;;;;;;;3.05;1.40;;;;;;;16.77;59.61;100186.75;5071655;28;20032;-46
2024/02/19 11:05:34;;;;;;;4.45;1.90;;;;;;;16.77;59.83;100186.75;5071772;28;20064;-46
2024/02/19 11:08:23;;;;;;;4.13;1.08;;;;;;;16.74;59.31;100189.78;5071549;28;20044;-46
2024/02/19 11:10:52;;;;;;;5.53;1.45;;;;;;;16.75;59.69;100184.28;5070336;28;20032;-46